Time;durP1;ratioP1;P1;durP2;ratioP2;P2;SDS_P1;SDS_P2;PMS_P1;PMS_P2;Temp;Humidity;BMP_temperature;BMP_pressure;BME280_temperature;BME280_humidity;BME280_pressure;Samples;Min_cycle;Max_cycle;Signal;HPM_P1;HPM_P2
2020/12/17 00:00:29;;;;;;;41.28;27.55;;;7.60;99.90;;;;;;5026625;28;20406;-75
2020/12/17 00:02:55;;;;;;;47.88;29.83;;;7.60;99.90;;;;;;5060427;28;20049;-74
2020/12/17 00:05:22;;;;;;;46.45;29.70;;;7.60;99.90;;;;;;5045803;28;20389;-74
2020/12/17 00:07:49;;;;;;;53.08;31.27;;;7.60;99.90;;;;;;5063039;28;20054;-73
2020/12/17 00:10:16;;;;;;;51.35;31.52;;;7.60;99.90;;;;;;5037561;28;20554;-74
2020/12/17 00:12:45;;;;;;;46.42;29.83;;;7.70;99.90;;;;;;5064682;28;20053;-74
2020/12/17 00:15:13;;;;;;;40.58;26.23;;;7.70;99.90;;;;;;5062777;28;20048;-74
2020/12/17 00:17:44;;;;;;;42.40;27.02;;;7.70;99.90;;;;;;5063384;28;20275;-74
2020/12/17 00:20:12;;;;;;;47.58;30.27;;;7.70;99.90;;;;;;5063429;28;20934;-74
2020/12/17 00:22:40;;;;;;;48.45;32.22;;;7.70;99.90;;;;;;5047236;28;20048;-74
2020/12/17 00:25:08;;;;;;;46.58;30.13;;;7.70;99.90;;;;;;5029692;28;20690;-75
2020/12/17 00:27:36;;;;;;;46.83;31.73;;;7.70;99.90;;;;;;5042239;28;20041;-75
2020/12/17 00:30:06;;;;;;;48.60;30.50;;;7.70;99.90;;;;;;5058355;28;20067;-74
2020/12/17 00:32:32;;;;;;;47.63;30.00;;;7.70;99.90;;;;;;5063478;28;20048;-74
2020/12/17 00:34:58;;;;;;;40.88;28.23;;;7.70;99.90;;;;;;5030210;28;20713;-75
2020/12/17 00:37:32;;;;;;;45.00;28.20;;;7.80;99.90;;;;;;5062142;28;20060;-74
2020/12/17 00:39:59;;;;;;;45.75;28.75;;;7.80;99.90;;;;;;5029101;28;20079;-74
2020/12/17 00:42:26;;;;;;;45.83;30.42;;;7.80;99.90;;;;;;5047378;28;20124;-74
2020/12/17 00:44:52;;;;;;;43.58;28.42;;;7.80;99.90;;;;;;5063282;28;20170;-75
2020/12/17 00:47:18;;;;;;;44.22;29.95;;;7.90;99.90;;;;;;5046375;28;20048;-74
2020/12/17 00:49:45;;;;;;;42.80;28.73;;;7.90;99.90;;;;;;5063860;28;20686;-74
2020/12/17 00:52:11;;;;;;;47.25;30.70;;;7.90;99.90;;;;;;5064535;28;20045;-76
2020/12/17 00:54:39;;;;;;;45.53;30.48;;;8.00;99.90;;;;;;5029878;28;20169;-75
2020/12/17 00:57:06;;;;;;;40.83;29.13;;;8.00;99.90;;;;;;5048068;28;20044;-74
2020/12/17 00:59:32;;;;;;;43.20;28.95;;;8.10;99.90;;;;;;5062115;28;20033;-75
2020/12/17 01:01:58;;;;;;;43.80;30.05;;;8.10;99.90;;;;;;5048950;28;20040;-75
2020/12/17 01:04:25;;;;;;;42.75;30.63;;;8.10;99.90;;;;;;5069947;28;20078;-74
2020/12/17 01:07:02;;;;;;;45.38;29.73;;;8.10;99.90;;;;;;5068615;28;20432;-75
2020/12/17 01:09:29;;;;;;;41.25;28.90;;;8.00;99.90;;;;;;5061700;28;20474;-74
2020/12/17 01:11:55;;;;;;;45.22;29.67;;;8.00;99.90;;;;;;5063900;28;20071;-74
2020/12/17 01:14:22;;;;;;;37.30;26.25;;;8.10;99.90;;;;;;5066365;28;20075;-75
2020/12/17 01:16:48;;;;;;;41.33;28.50;;;8.00;99.90;;;;;;5048891;28;20070;-74
2020/12/17 01:19:14;;;;;;;38.88;27.60;;;8.00;99.90;;;;;;5049734;28;20044;-74
2020/12/17 01:21:41;;;;;;;38.20;26.33;;;8.00;99.90;;;;;;5066832;28;20083;-74
2020/12/17 01:24:07;;;;;;;36.63;24.98;;;8.00;99.90;;;;;;5066338;28;20053;-75
2020/12/17 01:26:34;;;;;;;44.60;29.60;;;8.00;99.90;;;;;;5065622;28;20048;-75
2020/12/17 01:29:00;;;;;;;38.90;27.05;;;8.00;99.90;;;;;;5050174;28;20064;-75
2020/12/17 01:31:26;;;;;;;35.83;25.70;;;8.00;99.90;;;;;;5062003;28;20444;-75
2020/12/17 01:33:52;;;;;;;36.28;26.23;;;8.00;99.90;;;;;;5067481;28;20433;-75
2020/12/17 01:36:19;;;;;;;36.65;25.65;;;8.10;99.90;;;;;;5067197;28;20052;-74
2020/12/17 01:38:45;;;;;;;35.97;26.40;;;8.10;99.90;;;;;;5064912;28;20064;-75
2020/12/17 01:41:13;;;;;;;38.67;26.80;;;8.10;99.90;;;;;;5065084;28;20053;-75
2020/12/17 01:43:42;;;;;;;40.72;27.17;;;8.10;99.90;;;;;;5083392;28;20131;-75
2020/12/17 01:46:09;;;;;;;37.47;26.98;;;8.10;99.90;;;;;;5082169;28;20406;-75
2020/12/17 01:48:36;;;;;;;39.05;26.35;;;8.20;99.90;;;;;;5064622;28;20057;-76
2020/12/17 01:51:04;;;;;;;37.53;27.40;;;8.20;99.90;;;;;;5066025;28;20495;-74
2020/12/17 01:53:38;;;;;;;37.75;27.40;;;8.10;99.90;;;;;;5065952;28;20055;-75
2020/12/17 01:56:24;;;;;;;37.95;26.13;;;8.10;99.90;;;;;;5045097;28;20085;-75
2020/12/17 01:59:23;;;;;;;36.30;26.90;;;8.10;99.90;;;;;;5046905;28;20091;-75
2020/12/17 02:01:52;;;;;;;32.95;25.50;;;8.20;99.90;;;;;;5030506;28;20131;-76
2020/12/17 02:04:22;;;;;;;35.22;26.98;;;8.20;99.90;;;;;;5049392;28;20102;-75
2020/12/17 02:06:49;;;;;;;36.45;26.45;;;8.20;99.90;;;;;;5065946;28;20167;-75
2020/12/17 02:09:19;;;;;;;34.67;25.75;;;8.20;99.90;;;;;;5030943;28;20389;-75
2020/12/17 02:11:56;;;;;;;32.13;23.30;;;8.20;99.90;;;;;;5065663;28;20075;-74
2020/12/17 02:14:23;;;;;;;31.17;24.63;;;8.20;99.90;;;;;;5065828;28;20830;-75
2020/12/17 02:16:51;;;;;;;32.25;25.58;;;8.30;99.90;;;;;;5081352;28;20048;-74
2020/12/17 02:19:18;;;;;;;33.55;26.08;;;8.30;99.90;;;;;;5065022;28;20075;-74
2020/12/17 02:21:45;;;;;;;32.80;23.73;;;8.30;99.90;;;;;;5047647;28;20047;-74
2020/12/17 02:24:12;;;;;;;35.42;25.80;;;8.30;99.90;;;;;;5064883;28;20139;-75
2020/12/17 02:26:38;;;;;;;30.13;23.38;;;8.30;99.90;;;;;;5063546;28;20049;-75
2020/12/17 02:29:05;;;;;;;33.42;24.67;;;8.30;99.90;;;;;;5014745;28;20343;-75
2020/12/17 02:31:34;;;;;;;37.78;25.58;;;8.30;99.90;;;;;;5043809;28;20532;-75
2020/12/17 02:34:00;;;;;;;36.70;26.30;;;8.30;99.90;;;;;;5057329;28;20547;-74
2020/12/17 02:36:26;;;;;;;38.92;27.63;;;8.30;99.90;;;;;;5046857;28;20568;-74
2020/12/17 02:38:53;;;;;;;41.83;27.73;;;8.30;99.90;;;;;;5055259;28;20048;-75
2020/12/17 02:41:19;;;;;;;37.55;28.83;;;8.30;99.90;;;;;;5032639;28;20570;-75
2020/12/17 02:43:46;;;;;;;40.72;28.38;;;8.30;99.90;;;;;;5076581;28;20453;-75
2020/12/17 02:46:12;;;;;;;39.78;27.50;;;8.30;99.90;;;;;;5046580;28;20059;-75
2020/12/17 02:48:38;;;;;;;38.75;28.90;;;8.20;99.90;;;;;;5044786;28;20068;-75
2020/12/17 02:51:04;;;;;;;37.88;27.65;;;8.30;99.90;;;;;;5054585;28;20054;-75
2020/12/17 02:53:31;;;;;;;41.30;27.73;;;8.20;99.90;;;;;;5062850;28;20222;-75
2020/12/17 02:55:57;;;;;;;36.38;27.35;;;8.30;99.90;;;;;;5022335;28;20421;-75
2020/12/17 02:58:24;;;;;;;40.35;29.05;;;8.30;99.90;;;;;;5044842;28;20061;-74
2020/12/17 03:00:50;;;;;;;40.33;27.58;;;8.30;99.90;;;;;;5044046;28;20501;-75
2020/12/17 03:03:17;;;;;;;38.97;29.02;;;8.20;99.90;;;;;;5045214;28;20428;-75
2020/12/17 03:05:43;;;;;;;40.42;28.20;;;8.20;99.90;;;;;;5064082;28;20040;-75
2020/12/17 03:08:16;;;;;;;40.95;28.83;;;8.20;99.90;;;;;;5031698;28;20049;-75
2020/12/17 03:10:42;;;;;;;38.72;28.17;;;8.20;99.90;;;;;;5055051;28;20437;-75
2020/12/17 03:13:08;;;;;;;41.03;28.00;;;8.10;99.90;;;;;;5063980;28;20052;-74
2020/12/17 03:15:34;;;;;;;41.15;28.98;;;8.10;99.90;;;;;;5063591;28;20066;-75
2020/12/17 03:18:01;;;;;;;42.67;29.38;;;8.10;99.90;;;;;;5062864;28;20060;-74
2020/12/17 03:20:27;;;;;;;35.50;25.85;;;8.00;99.90;;;;;;5062568;28;20048;-75
2020/12/17 03:22:53;;;;;;;40.13;27.75;;;8.00;99.90;;;;;;5047892;28;20045;-75
2020/12/17 03:25:20;;;;;;;40.13;29.52;;;8.00;99.90;;;;;;5063958;28;20515;-74
2020/12/17 03:27:46;;;;;;;40.63;27.98;;;7.90;99.90;;;;;;5041897;28;20421;-75
2020/12/17 03:30:13;;;;;;;39.90;27.75;;;7.90;99.90;;;;;;5043017;28;20151;-75
2020/12/17 03:32:39;;;;;;;41.50;26.90;;;7.80;99.90;;;;;;5079038;28;20394;-75
2020/12/17 03:35:05;;;;;;;35.55;24.52;;;7.80;99.90;;;;;;5049010;28;20064;-75
2020/12/17 03:37:32;;;;;;;32.25;22.60;;;7.80;99.90;;;;;;5026380;28;20155;-74
2020/12/17 03:39:58;;;;;;;37.20;25.15;;;7.70;99.90;;;;;;5034963;28;20132;-75
2020/12/17 03:42:24;;;;;;;46.17;27.92;;;7.70;99.90;;;;;;5030284;28;20059;-74
2020/12/17 03:44:50;;;;;;;37.65;26.13;;;7.70;99.90;;;;;;5029928;28;20078;-75
2020/12/17 03:47:17;;;;;;;40.05;26.52;;;7.70;99.90;;;;;;5046505;28;20057;-75
2020/12/17 03:49:43;;;;;;;42.05;27.45;;;7.60;99.90;;;;;;5046886;28;20058;-75
2020/12/17 03:52:10;;;;;;;41.55;26.77;;;7.60;99.90;;;;;;5046220;28;20054;-74
2020/12/17 03:54:37;;;;;;;35.75;24.10;;;7.60;99.90;;;;;;5062864;28;20079;-74
2020/12/17 03:57:03;;;;;;;40.05;26.08;;;7.60;99.90;;;;;;5044666;28;20052;-75
2020/12/17 03:59:29;;;;;;;40.83;25.13;;;7.60;99.90;;;;;;5063720;28;20036;-75
2020/12/17 04:01:56;;;;;;;40.33;25.92;;;7.60;99.90;;;;;;5061403;28;20056;-74
2020/12/17 04:04:22;;;;;;;42.50;27.27;;;7.60;99.90;;;;;;5029592;28;20060;-75
2020/12/17 04:06:48;;;;;;;38.00;26.52;;;7.60;99.90;;;;;;5076778;28;20170;-75
2020/12/17 04:09:15;;;;;;;40.03;25.77;;;7.60;99.90;;;;;;5071395;28;20147;-74
2020/12/17 04:11:42;;;;;;;41.00;27.45;;;7.60;99.90;;;;;;5061609;28;20064;-74
2020/12/17 04:14:08;;;;;;;38.60;26.98;;;7.60;99.90;;;;;;5029650;28;20052;-75
2020/12/17 04:16:34;;;;;;;38.17;25.70;;;7.60;99.90;;;;;;5061632;28;20134;-74
2020/12/17 04:19:00;;;;;;;39.40;26.23;;;7.60;99.90;;;;;;5047323;28;20667;-73
2020/12/17 04:21:26;;;;;;;37.08;25.23;;;7.60;99.90;;;;;;5046285;28;20055;-73
2020/12/17 04:23:53;;;;;;;36.63;24.77;;;7.60;99.90;;;;;;5045971;28;20075;-75
2020/12/17 04:26:19;;;;;;;39.83;27.10;;;7.60;99.90;;;;;;5061714;28;20052;-74
2020/12/17 04:28:45;;;;;;;38.83;27.25;;;7.60;99.90;;;;;;5042337;28;20075;-74
2020/12/17 04:31:13;;;;;;;37.78;26.15;;;7.60;99.90;;;;;;5047747;28;20045;-74
2020/12/17 04:33:39;;;;;;;38.88;27.13;;;7.60;99.90;;;;;;5049688;28;20148;-75
2020/12/17 04:36:05;;;;;;;41.20;28.13;;;7.60;99.90;;;;;;5048855;28;20055;-75
2020/12/17 04:38:31;;;;;;;37.03;25.52;;;7.60;99.90;;;;;;5052248;28;20044;-74
2020/12/17 04:41:03;;;;;;;38.03;25.52;;;7.60;99.90;;;;;;5060475;28;20128;-74
2020/12/17 04:43:30;;;;;;;42.30;27.90;;;7.60;99.90;;;;;;5053156;28;20044;-74
2020/12/17 04:45:58;;;;;;;34.08;25.17;;;7.60;99.90;;;;;;5065554;28;20571;-75
2020/12/17 04:48:26;;;;;;;36.72;24.77;;;7.60;99.90;;;;;;5063488;28;20044;-75
2020/12/17 04:50:53;;;;;;;36.38;23.35;;;7.60;99.90;;;;;;5052728;28;20049;-74
2020/12/17 04:53:20;;;;;;;37.63;25.55;;;7.60;99.90;;;;;;5062134;28;20122;-74
2020/12/17 04:55:49;;;;;;;34.33;25.40;;;7.60;99.90;;;;;;5068503;28;20055;-74
2020/12/17 04:58:20;;;;;;;36.05;24.73;;;7.60;99.90;;;;;;5068666;28;20059;-74
2020/12/17 05:00:53;;;;;;;36.55;25.52;;;7.60;99.90;;;;;;5068115;28;20535;-75
2020/12/17 05:03:22;;;;;;;38.42;25.42;;;7.70;99.90;;;;;;5051974;28;20051;-74
2020/12/17 05:05:51;;;;;;;38.28;26.55;;;7.70;99.90;;;;;;5068972;28;20052;-75
2020/12/17 05:08:24;;;;;;;32.13;22.92;;;7.70;99.90;;;;;;5052636;28;20048;-74
2020/12/17 05:10:50;;;;;;;34.55;24.08;;;7.70;99.90;;;;;;5060701;28;20722;-74
2020/12/17 05:13:17;;;;;;;35.08;24.55;;;7.70;99.90;;;;;;5050678;28;20506;-74
2020/12/17 05:15:44;;;;;;;31.88;22.42;;;7.70;99.90;;;;;;5050094;28;20047;-74
2020/12/17 05:18:11;;;;;;;31.52;21.52;;;7.70;99.90;;;;;;5048893;28;20053;-74
2020/12/17 05:20:39;;;;;;;33.70;25.63;;;7.70;99.90;;;;;;5054826;28;20044;-75
2020/12/17 05:23:05;;;;;;;38.53;26.67;;;7.70;99.90;;;;;;5070905;28;20045;-74
2020/12/17 05:25:32;;;;;;;33.88;24.50;;;7.70;99.90;;;;;;5052017;28;20032;-75
2020/12/17 05:28:03;;;;;;;34.78;27.77;;;7.70;99.90;;;;;;5045164;28;20532;-75
2020/12/17 05:30:33;;;;;;;38.78;26.88;;;7.70;99.90;;;;;;5047875;28;20429;-74
2020/12/17 05:33:01;;;;;;;37.72;27.50;;;7.70;99.90;;;;;;5066198;28;20053;-74
2020/12/17 05:35:38;;;;;;;38.53;28.63;;;7.70;99.90;;;;;;5056706;28;20449;-75
2020/12/17 05:38:07;;;;;;;32.72;24.02;;;7.70;99.90;;;;;;5052093;28;20234;-75
2020/12/17 05:40:43;;;;;;;38.88;27.98;;;7.80;99.90;;;;;;5060339;28;20528;-75
2020/12/17 05:43:10;;;;;;;35.40;26.58;;;7.70;99.90;;;;;;5065404;28;20055;-75
2020/12/17 05:45:37;;;;;;;36.20;26.08;;;7.70;99.90;;;;;;5049059;28;20056;-74
2020/12/17 05:48:11;;;;;;;35.20;27.13;;;7.70;99.90;;;;;;5061343;28;20056;-75
2020/12/17 05:50:55;;;;;;;41.20;27.55;;;7.70;99.90;;;;;;5057833;28;20045;-74
2020/12/17 05:53:27;;;;;;;38.17;27.05;;;7.70;99.90;;;;;;5056453;28;20101;-74
2020/12/17 05:56:07;;;;;;;42.42;30.10;;;7.70;99.90;;;;;;5057331;28;20136;-74
2020/12/17 05:58:41;;;;;;;38.17;28.45;;;7.60;99.90;;;;;;5061275;28;20056;-74
2020/12/17 06:01:08;;;;;;;31.80;24.60;;;7.60;99.90;;;;;;5046821;28;20036;-75
2020/12/17 06:03:35;;;;;;;39.05;27.98;;;7.60;99.90;;;;;;5065022;28;20056;-74
2020/12/17 06:06:06;;;;;;;38.92;29.17;;;7.60;99.90;;;;;;5064113;28;20235;-73
2020/12/17 06:08:38;;;;;;;39.58;27.83;;;7.60;99.90;;;;;;5048231;28;20416;-74
2020/12/17 06:11:15;;;;;;;40.25;27.92;;;7.60;99.90;;;;;;5056976;28;20052;-73
2020/12/17 06:13:43;;;;;;;41.50;29.58;;;7.60;99.90;;;;;;5031337;28;20044;-74
2020/12/17 06:16:11;;;;;;;35.17;25.77;;;7.60;99.90;;;;;;5029276;28;20164;-74
2020/12/17 06:18:47;;;;;;;38.85;27.08;;;7.60;99.90;;;;;;5063882;28;20033;-74
2020/12/17 06:21:15;;;;;;;33.58;25.13;;;7.50;99.90;;;;;;5021230;28;20514;-74
2020/12/17 06:23:41;;;;;;;31.85;23.88;;;7.50;99.90;;;;;;5064642;28;20049;-74
2020/12/17 06:26:09;;;;;;;38.47;27.95;;;7.50;99.90;;;;;;5046851;28;20425;-75
2020/12/17 06:28:46;;;;;;;37.97;27.73;;;7.50;99.90;;;;;;5047709;28;20171;-74
2020/12/17 06:31:15;;;;;;;34.83;22.58;;;7.50;99.90;;;;;;5065219;28;20356;-75
2020/12/17 06:33:42;;;;;;;41.08;28.88;;;7.50;99.90;;;;;;5064301;28;20054;-74
2020/12/17 06:36:27;;;;;;;36.75;27.23;;;7.50;99.90;;;;;;5063655;28;20126;-75
2020/12/17 06:38:54;;;;;;;38.63;28.33;;;7.60;99.90;;;;;;5063498;28;20048;-75
2020/12/17 06:41:24;;;;;;;39.20;25.50;;;7.60;99.90;;;;;;5063149;28;20426;-75
2020/12/17 06:43:51;;;;;;;36.35;24.73;;;7.60;99.90;;;;;;5063256;28;20036;-75
2020/12/17 06:46:36;;;;;;;43.53;29.45;;;7.60;99.90;;;;;;5065402;28;20109;-73
2020/12/17 06:49:08;;;;;;;48.47;30.93;;;7.50;99.90;;;;;;5056192;28;20525;-74
2020/12/17 06:51:41;;;;;;;44.53;29.20;;;7.60;99.90;;;;;;5010592;28;20481;-74
2020/12/17 06:54:28;;;;;;;30.17;22.65;;;7.50;99.90;;;;;;5042779;28;20604;-74
2020/12/17 06:57:09;;;;;;;31.90;23.98;;;7.50;99.90;;;;;;5035234;28;20209;-74
2020/12/17 06:59:56;;;;;;;31.25;21.25;;;7.50;99.90;;;;;;5063518;28;20139;-75
2020/12/17 07:02:42;;;;;;;34.15;23.77;;;7.50;99.90;;;;;;5061574;28;20049;-74
2020/12/17 07:05:29;;;;;;;35.33;23.92;;;7.50;99.90;;;;;;5063344;28;20109;-74
2020/12/17 07:07:55;;;;;;;31.08;22.25;;;7.50;99.90;;;;;;5080445;28;20131;-74
2020/12/17 07:10:26;;;;;;;33.90;24.70;;;7.50;99.90;;;;;;5057303;28;20048;-75
2020/12/17 07:12:53;;;;;;;30.48;21.90;;;7.50;99.90;;;;;;5065330;28;20049;-74
2020/12/17 07:15:37;;;;;;;31.40;24.88;;;7.60;99.90;;;;;;5046990;28;20085;-75
2020/12/17 07:18:23;;;;;;;34.28;25.85;;;7.60;99.90;;;;;;5037735;28;20048;-74
2020/12/17 07:20:54;;;;;;;26.50;21.52;;;7.60;99.90;;;;;;5047728;28;20147;-74
2020/12/17 07:23:21;;;;;;;33.13;26.77;;;7.60;99.90;;;;;;5010859;28;20148;-74
2020/12/17 07:25:52;;;;;;;33.70;23.65;;;7.60;99.90;;;;;;5045947;28;20508;-75
2020/12/17 07:28:24;;;;;;;30.40;22.42;;;7.70;99.90;;;;;;5052636;28;20083;-74
2020/12/17 07:30:55;;;;;;;29.80;22.88;;;7.70;99.90;;;;;;5029502;28;20052;-75
2020/12/17 07:33:41;;;;;;;29.17;22.45;;;7.70;99.90;;;;;;5030421;28;20068;-74
2020/12/17 07:36:09;;;;;;;32.22;22.95;;;7.80;99.90;;;;;;5060098;28;20346;-74
2020/12/17 07:38:36;;;;;;;28.67;22.38;;;7.80;99.90;;;;;;5052496;28;20054;-75
2020/12/17 07:41:28;;;;;;;31.50;23.73;;;7.80;99.90;;;;;;5059290;28;20064;-75
2020/12/17 07:43:55;;;;;;;31.77;23.87;;;7.80;99.90;;;;;;5026651;28;20627;-75
2020/12/17 07:46:36;;;;;;;33.67;25.40;;;7.80;99.90;;;;;;5033465;28;20125;-75
2020/12/17 07:49:19;;;;;;;34.50;25.40;;;7.80;99.90;;;;;;5046581;28;20048;-74
2020/12/17 07:51:45;;;;;;;33.92;26.13;;;7.80;99.90;;;;;;5063134;28;20528;-75
2020/12/17 07:54:13;;;;;;;34.75;25.60;;;7.80;99.90;;;;;;5063458;28;20211;-74
2020/12/17 07:56:40;;;;;;;32.75;24.42;;;7.80;99.90;;;;;;5028335;28;20067;-74
2020/12/17 07:59:06;;;;;;;35.78;25.27;;;7.80;99.90;;;;;;5038117;28;20044;-74
2020/12/17 08:01:33;;;;;;;30.73;24.27;;;7.80;99.90;;;;;;5035765;28;20589;-74
2020/12/17 08:04:00;;;;;;;36.28;26.13;;;7.80;99.90;;;;;;5064647;28;20052;-74
2020/12/17 08:06:28;;;;;;;33.03;23.45;;;7.70;99.90;;;;;;5062261;28;20058;-74
2020/12/17 08:08:56;;;;;;;32.65;23.50;;;7.70;99.90;;;;;;5046463;28;20113;-74
2020/12/17 08:11:34;;;;;;;31.35;22.58;;;7.70;99.90;;;;;;5038738;28;20661;-74
2020/12/17 08:14:06;;;;;;;25.90;18.63;;;7.60;99.90;;;;;;5029559;28;20041;-74
2020/12/17 08:16:33;;;;;;;29.27;20.02;;;7.70;99.90;;;;;;5062508;28;20600;-75
2020/12/17 08:19:01;;;;;;;28.20;19.70;;;7.70;99.90;;;;;;5063294;28;20045;-75
2020/12/17 08:21:28;;;;;;;30.10;22.65;;;7.70;99.90;;;;;;5062752;28;20086;-75
2020/12/17 08:23:55;;;;;;;32.25;23.00;;;7.70;99.90;;;;;;5063152;28;20601;-74
2020/12/17 08:26:27;;;;;;;31.08;22.98;;;7.70;99.90;;;;;;5045186;28;20055;-74
2020/12/17 08:28:54;;;;;;;34.72;23.58;;;7.70;99.90;;;;;;5063853;28;20087;-74
2020/12/17 08:31:23;;;;;;;29.42;22.55;;;7.70;99.90;;;;;;5062737;28;20696;-73
2020/12/17 08:33:56;;;;;;;29.17;21.25;;;7.80;99.90;;;;;;5063400;28;20123;-74
2020/12/17 08:36:24;;;;;;;31.85;21.33;;;7.80;99.90;;;;;;5062493;28;20055;-74
2020/12/17 08:38:53;;;;;;;31.48;22.95;;;7.70;99.90;;;;;;5063714;28;20070;-74
2020/12/17 08:41:25;;;;;;;29.52;21.40;;;7.80;99.90;;;;;;5042203;28;20486;-75
2020/12/17 08:43:53;;;;;;;27.58;20.05;;;7.80;99.90;;;;;;5047936;28;20055;-74
2020/12/17 08:46:20;;;;;;;30.75;20.58;;;7.80;99.90;;;;;;5043683;28;20107;-75
2020/12/17 08:48:46;;;;;;;31.40;22.10;;;7.80;99.90;;;;;;5062223;28;20044;-74
2020/12/17 08:51:17;;;;;;;29.55;21.25;;;7.80;99.90;;;;;;5063099;28;20072;-74
2020/12/17 08:53:45;;;;;;;26.88;21.98;;;7.80;99.90;;;;;;5045375;28;20044;-74
2020/12/17 08:56:23;;;;;;;32.05;24.40;;;7.90;99.90;;;;;;5051714;28;20588;-74
2020/12/17 08:58:54;;;;;;;29.02;21.63;;;7.90;99.90;;;;;;5045421;28;20417;-74
2020/12/17 09:01:31;;;;;;;35.33;24.35;;;7.90;99.90;;;;;;5053745;28;20713;-74
2020/12/17 09:03:58;;;;;;;28.30;19.58;;;8.00;99.90;;;;;;5038413;28;20073;-74
2020/12/17 09:06:30;;;;;;;25.80;20.33;;;8.00;99.90;;;;;;5060885;28;20040;-74
2020/12/17 09:09:25;;;;;;;27.67;19.17;;;8.00;99.90;;;;;;5044545;28;20062;-74
2020/12/17 09:12:03;;;;;;;25.70;20.15;;;8.00;99.90;;;;;;5059197;28;20057;-75
2020/12/17 09:14:38;;;;;;;26.90;22.38;;;8.00;99.90;;;;;;5042336;28;20536;-74
2020/12/17 09:17:15;;;;;;;27.35;21.88;;;8.00;99.90;;;;;;5055799;28;20223;-76
2020/12/17 09:19:43;;;;;;;27.98;21.85;;;8.00;99.90;;;;;;5048413;28;20449;-76
2020/12/17 09:22:10;;;;;;;30.65;23.00;;;8.00;99.90;;;;;;5064236;28;20071;-75
2020/12/17 09:24:38;;;;;;;26.35;21.27;;;7.90;99.90;;;;;;5064677;28;20227;-74
2020/12/17 09:27:21;;;;;;;29.17;23.00;;;7.90;99.90;;;;;;5065233;28;20052;-74
2020/12/17 09:30:01;;;;;;;29.05;22.85;;;7.90;99.90;;;;;;5044534;28;20447;-75
2020/12/17 09:32:28;;;;;;;25.48;22.23;;;8.00;99.90;;;;;;5039693;28;20110;-75
2020/12/17 09:35:01;;;;;;;27.48;21.17;;;8.00;99.90;;;;;;5065375;28;20056;-75
2020/12/17 09:37:28;;;;;;;25.95;21.40;;;7.90;99.90;;;;;;5064832;28;20590;-75
2020/12/17 09:39:54;;;;;;;27.42;22.08;;;7.90;99.90;;;;;;5056367;28;20646;-76
2020/12/17 09:42:24;;;;;;;31.27;24.13;;;7.90;99.90;;;;;;5007931;28;20510;-76
2020/12/17 09:44:51;;;;;;;32.75;25.67;;;7.80;99.90;;;;;;5008540;28;20056;-76
2020/12/17 09:47:33;;;;;;;29.25;22.67;;;7.80;99.90;;;;;;5029103;28;20059;-75
2020/12/17 09:50:20;;;;;;;28.90;23.73;;;7.70;99.90;;;;;;5044687;28;20122;-76
2020/12/17 09:52:46;;;;;;;34.83;25.30;;;7.70;99.90;;;;;;5045255;28;20067;-76
2020/12/17 09:55:13;;;;;;;36.83;25.10;;;7.60;99.90;;;;;;5027197;28;20152;-76
2020/12/17 09:57:41;;;;;;;34.33;22.83;;;7.60;99.90;;;;;;5027519;28;20045;-76
2020/12/17 10:00:12;;;;;;;33.72;24.88;;;7.50;99.90;;;;;;5027163;28;20041;-75
2020/12/17 10:02:40;;;;;;;35.40;23.52;;;7.40;99.90;;;;;;5030649;28;20047;-75
2020/12/17 10:05:08;;;;;;;37.03;23.95;;;7.40;99.90;;;;;;5047285;28;20054;-75
2020/12/17 10:07:35;;;;;;;32.90;24.30;;;7.50;99.90;;;;;;5064218;28;20693;-75
2020/12/17 10:10:03;;;;;;;34.17;23.17;;;7.50;99.90;;;;;;5055828;28;20126;-75
2020/12/17 10:12:40;;;;;;;35.88;22.48;;;7.40;99.90;;;;;;5064114;28;20048;-74
2020/12/17 10:15:06;;;;;;;33.72;21.70;;;7.40;99.90;;;;;;5063420;28;20556;-75
2020/12/17 10:17:33;;;;;;;31.30;22.25;;;7.40;99.90;;;;;;5044439;28;20548;-75
2020/12/17 10:19:59;;;;;;;33.80;22.63;;;7.40;99.90;;;;;;5044886;28;20049;-74
2020/12/17 10:22:42;;;;;;;32.45;22.23;;;7.40;99.90;;;;;;5027485;28;20053;-74
2020/12/17 10:25:09;;;;;;;34.13;22.65;;;7.40;99.90;;;;;;5043831;28;20045;-74
2020/12/17 10:27:35;;;;;;;37.05;23.58;;;7.40;99.90;;;;;;5056658;28;20060;-75
2020/12/17 10:30:02;;;;;;;34.00;25.08;;;7.40;99.90;;;;;;5054769;28;20053;-75
2020/12/17 10:32:31;;;;;;;29.58;21.75;;;7.40;99.90;;;;;;5063208;28;20080;-75
2020/12/17 10:34:57;;;;;;;37.30;24.83;;;7.40;99.90;;;;;;5063978;28;20064;-75
2020/12/17 10:37:26;;;;;;;37.50;25.25;;;7.40;99.90;;;;;;5062864;28;20516;-75
2020/12/17 10:39:53;;;;;;;70.57;42.55;;;7.40;99.90;;;;;;5062790;28;20044;-75
2020/12/17 10:42:20;;;;;;;45.97;29.27;;;7.50;99.90;;;;;;5035502;28;20046;-75
2020/12/17 10:44:47;;;;;;;60.25;32.92;;;7.40;99.90;;;;;;5029389;28;20071;-75
2020/12/17 10:47:13;;;;;;;66.95;39.97;;;7.40;99.90;;;;;;5020595;28;20045;-74
2020/12/17 10:49:40;;;;;;;43.17;30.00;;;7.50;99.90;;;;;;5049816;28;20053;-74
2020/12/17 10:52:07;;;;;;;37.92;25.67;;;7.50;99.90;;;;;;5057613;28;20048;-75
2020/12/17 10:54:33;;;;;;;34.20;23.35;;;7.60;99.90;;;;;;5064338;28;20055;-75
2020/12/17 10:56:59;;;;;;;30.73;21.60;;;7.60;99.90;;;;;;5038150;28;20047;-75
2020/12/17 10:59:26;;;;;;;30.25;22.25;;;7.70;99.90;;;;;;5028314;28;20044;-74
2020/12/17 11:01:56;;;;;;;29.48;21.55;;;7.70;99.90;;;;;;5061498;28;20045;-75
2020/12/17 11:04:23;;;;;;;28.48;21.15;;;7.80;99.90;;;;;;5053777;28;20044;-74
2020/12/17 11:06:49;;;;;;;28.50;20.02;;;7.80;99.90;;;;;;5057243;28;20060;-74
2020/12/17 11:09:15;;;;;;;24.50;18.80;;;8.00;99.90;;;;;;5043969;28;20092;-74
2020/12/17 11:11:42;;;;;;;24.70;17.75;;;8.00;99.90;;;;;;5056915;28;20072;-75
2020/12/17 11:14:08;;;;;;;20.45;17.33;;;8.10;99.90;;;;;;5062029;28;20056;-74
2020/12/17 11:16:35;;;;;;;20.75;17.00;;;8.10;99.90;;;;;;5069083;28;20135;-74
2020/12/17 11:19:01;;;;;;;22.65;17.75;;;8.20;99.90;;;;;;5055108;28;20155;-74
2020/12/17 11:21:27;;;;;;;23.33;19.85;;;8.30;99.90;;;;;;5052406;28;20060;-74
2020/12/17 11:24:14;;;;;;;21.75;17.35;;;8.40;99.90;;;;;;5038492;28;20075;-74
2020/12/17 11:26:43;;;;;;;20.10;17.70;;;8.60;99.90;;;;;;5039564;28;20158;-73
2020/12/17 11:29:09;;;;;;;19.52;16.85;;;8.60;99.90;;;;;;5044536;28;20556;-73
2020/12/17 11:31:36;;;;;;;21.75;17.27;;;8.60;99.90;;;;;;5048362;28;20051;-73
2020/12/17 11:34:02;;;;;;;20.67;18.45;;;8.60;99.90;;;;;;5058097;28;20603;-73
2020/12/17 11:36:28;;;;;;;18.33;16.38;;;8.60;99.90;;;;;;5026092;28;20144;-74
2020/12/17 11:38:55;;;;;;;22.83;17.98;;;8.60;99.90;;;;;;5032680;28;20831;-74
2020/12/17 11:41:21;;;;;;;20.60;17.35;;;8.70;99.90;;;;;;5016501;28;20071;-73
2020/12/17 11:43:57;;;;;;;18.80;16.77;;;8.70;99.90;;;;;;5043478;28;20041;-74
2020/12/17 11:46:23;;;;;;;20.63;15.63;;;8.80;99.90;;;;;;5008446;28;20041;-74
2020/12/17 11:48:50;;;;;;;19.17;17.17;;;8.90;99.90;;;;;;5033018;28;20537;-74
2020/12/17 11:51:16;;;;;;;18.85;16.88;;;8.80;99.90;;;;;;5028326;28;20410;-73
2020/12/17 11:53:44;;;;;;;16.13;14.45;;;8.90;99.90;;;;;;5044304;28;20120;-74
2020/12/17 11:56:14;;;;;;;14.20;12.98;;;8.90;99.90;;;;;;5060551;28;20048;-73
2020/12/17 11:58:44;;;;;;;13.05;11.95;;;8.90;99.90;;;;;;5051387;28;20667;-73
2020/12/17 12:01:10;;;;;;;11.85;10.85;;;9.00;99.90;;;;;;5040532;28;20132;-74
2020/12/17 12:03:37;;;;;;;11.93;11.13;;;9.10;99.90;;;;;;5009472;28;20045;-73
2020/12/17 12:06:04;;;;;;;14.13;12.98;;;9.10;99.90;;;;;;5036170;28;20194;-74
2020/12/17 12:08:30;;;;;;;14.02;13.00;;;9.10;99.90;;;;;;5048002;28;20123;-73
2020/12/17 12:10:58;;;;;;;13.68;12.60;;;9.10;99.90;;;;;;5041998;28;20458;-73
2020/12/17 12:13:24;;;;;;;13.68;12.77;;;9.20;99.90;;;;;;5044584;28;20557;-74
2020/12/17 12:15:50;;;;;;;14.43;13.35;;;9.20;99.90;;;;;;5052741;28;20509;-73
2020/12/17 12:18:17;;;;;;;17.92;16.35;;;9.30;99.90;;;;;;5060312;28;20045;-73
2020/12/17 12:20:44;;;;;;;16.67;15.40;;;9.30;99.90;;;;;;5052664;28;20059;-73
2020/12/17 12:23:10;;;;;;;14.20;13.15;;;9.20;99.90;;;;;;5043854;28;20098;-74
2020/12/17 12:25:39;;;;;;;14.80;13.80;;;9.30;99.90;;;;;;5059038;28;20055;-74
2020/12/17 12:28:05;;;;;;;14.23;13.23;;;9.20;99.90;;;;;;5034049;28;20048;-74
2020/12/17 12:30:32;;;;;;;12.93;12.27;;;9.20;99.90;;;;;;5044033;28;20044;-73
2020/12/17 12:32:58;;;;;;;13.52;12.85;;;9.20;99.90;;;;;;5045412;28;20048;-73
2020/12/17 12:35:24;;;;;;;13.52;12.68;;;9.20;99.90;;;;;;5044616;28;20048;-74
2020/12/17 12:37:51;;;;;;;12.98;12.35;;;9.20;99.90;;;;;;5062510;28;20041;-73
2020/12/17 12:40:17;;;;;;;13.60;12.80;;;9.20;99.90;;;;;;5043024;28;20139;-73
2020/12/17 12:42:43;;;;;;;12.93;12.23;;;9.20;99.90;;;;;;5062723;28;20435;-74
2020/12/17 12:45:10;;;;;;;12.70;12.07;;;9.20;99.90;;;;;;5041854;28;20074;-73